DAL301 KATL-KLAX
Flight info
| Callsign | DAL301 |
|---|---|
| Flight time | N/A |
| Altitude | 40000 |
| Route | NASSA2 YAALL J14 PNH ACH ABQ J78 DRK GABBL HLYWD1 |
| Aircraft | A359/H-SDE2E3GHIJ3J4J5LM1ORWXY/LB1D1 |
Departure
| Time | 2026-05-06 16:12 |
|---|---|
| Airport | Hartsfield Jackson Atlanta International Airport (KATL) |
Arrival
| Time | N/A |
|---|---|
| Airport | Los Angeles International Airport (KLAX) |
| Time | Latitude | Longitude | Altitude | Speed | Heading |
|---|---|---|---|---|---|
| 2026-05-06 15:43 | 33.64006 | -84.42649 | 1013 ft | 0 kts | 90° |
| 2026-05-06 15:58 | 33.64006 | -84.42660 | 1013 ft | 3 kts | 90° |
| 2026-05-06 15:58 | 33.64003 | -84.42682 | 1021 ft | 3 kts | 69° |
| 2026-05-06 15:59 | 33.63995 | -84.42703 | 1013 ft | 3 kts | 53° |
| 2026-05-06 15:59 | 33.63984 | -84.42722 | 1013 ft | 3 kts | 40° |
| 2026-05-06 15:59 | 33.63966 | -84.42734 | 1013 ft | 3 kts | 359° |
| 2026-05-06 15:59 | 33.63962 | -84.42733 | 1013 ft | 0 kts | 359° |
| 2026-05-06 16:03 | 33.63983 | -84.42733 | 1013 ft | 6 kts | 0° |
| 2026-05-06 16:04 | 33.64049 | -84.42732 | 1013 ft | 13 kts | 0° |
| 2026-05-06 16:04 | 33.64157 | -84.42733 | 1013 ft | 18 kts | 360° |
| 2026-05-06 16:04 | 33.64288 | -84.42734 | 1013 ft | 20 kts | 359° |
| 2026-05-06 16:04 | 33.64363 | -84.42736 | 1013 ft | 0 kts | 1° |
| 2026-05-06 16:05 | 33.64369 | -84.42736 | 1013 ft | 3 kts | 1° |
| 2026-05-06 16:05 | 33.64412 | -84.42735 | 1013 ft | 10 kts | 1° |
| 2026-05-06 16:05 | 33.64468 | -84.42679 | 1013 ft | 14 kts | 69° |
| 2026-05-06 16:06 | 33.64469 | -84.42547 | 1012 ft | 19 kts | 91° |
| 2026-05-06 16:06 | 33.64469 | -84.42364 | 1012 ft | 25 kts | 89° |
| 2026-05-06 16:06 | 33.64501 | -84.42194 | 1012 ft | 21 kts | 59° |
| 2026-05-06 16:06 | 33.64543 | -84.42053 | 1012 ft | 15 kts | 93° |
| 2026-05-06 16:07 | 33.64540 | -84.41922 | 1012 ft | 17 kts | 91° |
| 2026-05-06 16:07 | 33.64539 | -84.41776 | 1012 ft | 18 kts | 90° |
| 2026-05-06 16:07 | 33.64541 | -84.41625 | 1013 ft | 19 kts | 88° |
| 2026-05-06 16:07 | 33.64543 | -84.41464 | 1013 ft | 20 kts | 89° |
| 2026-05-06 16:08 | 33.64544 | -84.41291 | 1013 ft | 22 kts | 89° |
| 2026-05-06 16:08 | 33.64546 | -84.41103 | 1013 ft | 23 kts | 89° |
| 2026-05-06 16:08 | 33.64547 | -84.40900 | 1012 ft | 25 kts | 91° |
| 2026-05-06 16:08 | 33.64513 | -84.40700 | 1012 ft | 25 kts | 90° |
| 2026-05-06 16:09 | 33.64539 | -84.40572 | 1012 ft | 8 kts | 19° |
| 2026-05-06 16:09 | 33.64556 | -84.40571 | 1012 ft | 0 kts | 0° |
| 2026-05-06 16:09 | 33.64570 | -84.40571 | 1012 ft | 5 kts | 0° |
| 2026-05-06 16:10 | 33.64636 | -84.40570 | 1010 ft | 13 kts | 0° |
| 2026-05-06 16:10 | 33.64694 | -84.40572 | 1010 ft | 0 kts | 344° |
| 2026-05-06 16:10 | 33.64698 | -84.40606 | 1010 ft | 9 kts | 253° |
| 2026-05-06 16:10 | 33.64681 | -84.40677 | 1010 ft | 0 kts | 268° |
| 2026-05-06 16:11 | 33.64680 | -84.40726 | 1010 ft | 27 kts | 268° |
| 2026-05-06 16:11 | 33.64678 | -84.41234 | 1014 ft | 92 kts | 270° |
| 2026-05-06 16:12 | 33.64680 | -84.42235 | 1011 ft | 147 kts | 270° |
| 2026-05-06 16:12 | 33.64680 | -84.43497 | 1559 ft | 150 kts | 270° |
| 2026-05-06 16:12 | 33.64682 | -84.44730 | 2375 ft | 147 kts | 265° |
| 2026-05-06 16:12 | 33.64752 | -84.46003 | 2927 ft | 163 kts | 275° |
| 2026-05-06 16:13 | 33.65075 | -84.47399 | 3291 ft | 184 kts | 285° |
| 2026-05-06 16:13 | 33.65408 | -84.48961 | 3612 ft | 205 kts | 278° |
| 2026-05-06 16:13 | 33.65693 | -84.50733 | 3945 ft | 227 kts | 278° |
| 2026-05-06 16:13 | 33.66008 | -84.52656 | 4443 ft | 241 kts | 279° |
| 2026-05-06 16:14 | 33.66353 | -84.54639 | 5152 ft | 243 kts | 279° |
| 2026-05-06 16:14 | 33.66707 | -84.56628 | 5928 ft | 244 kts | 280° |
| 2026-05-06 16:14 | 33.67068 | -84.58640 | 6696 ft | 247 kts | 280° |
| 2026-05-06 16:14 | 33.67423 | -84.60668 | 7400 ft | 249 kts | 279° |
| 2026-05-06 16:15 | 33.67766 | -84.62712 | 8204 ft | 249 kts | 278° |
| 2026-05-06 16:15 | 33.68104 | -84.64736 | 8966 ft | 252 kts | 278° |
| 2026-05-06 16:15 | 33.68453 | -84.66814 | 9760 ft | 254 kts | 278° |
| 2026-05-06 16:15 | 33.68805 | -84.68911 | 10394 ft | 261 kts | 277° |
| 2026-05-06 16:16 | 33.69174 | -84.71122 | 10685 ft | 279 kts | 277° |
| 2026-05-06 16:16 | 33.69569 | -84.73482 | 10981 ft | 295 kts | 278° |
| 2026-05-06 16:16 | 33.69921 | -84.75971 | 11257 ft | 309 kts | 272° |
| 2026-05-06 16:16 | 33.70006 | -84.78575 | 11533 ft | 322 kts | 268° |
| 2026-05-06 16:17 | 33.70001 | -84.81320 | 12051 ft | 327 kts | 268° |
| 2026-05-06 16:17 | 33.69990 | -84.84065 | 12638 ft | 331 kts | 268° |
| 2026-05-06 16:17 | 33.69980 | -84.86806 | 13254 ft | 332 kts | 268° |
| 2026-05-06 16:17 | 33.69973 | -84.89585 | 13903 ft | 334 kts | 268° |
| 2026-05-06 16:18 | 33.69966 | -84.92376 | 14483 ft | 335 kts | 269° |
| 2026-05-06 16:18 | 33.69958 | -84.95180 | 15025 ft | 337 kts | 269° |
| 2026-05-06 16:18 | 33.69951 | -84.98006 | 15566 ft | 339 kts | 269° |
| 2026-05-06 16:18 | 33.69943 | -85.00840 | 16143 ft | 341 kts | 269° |
| 2026-05-06 16:19 | 33.69934 | -85.03694 | 16725 ft | 343 kts | 270° |
| 2026-05-06 16:19 | 33.69926 | -85.06573 | 17340 ft | 345 kts | 270° |
| 2026-05-06 16:19 | 33.69916 | -85.09462 | 17909 ft | 347 kts | 270° |
| 2026-05-06 16:19 | 33.69905 | -85.12365 | 18450 ft | 349 kts | 270° |
| 2026-05-06 16:20 | 33.69894 | -85.15287 | 18924 ft | 351 kts | 271° |
| 2026-05-06 16:20 | 33.69882 | -85.18239 | 19417 ft | 355 kts | 271° |
| 2026-05-06 16:20 | 33.69868 | -85.21217 | 19930 ft | 358 kts | 271° |
| 2026-05-06 16:20 | 33.69854 | -85.24220 | 20388 ft | 361 kts | 271° |
| 2026-05-06 16:21 | 33.69825 | -85.27244 | 20842 ft | 364 kts | 270° |
| 2026-05-06 16:21 | 33.69788 | -85.30293 | 21277 ft | 366 kts | 270° |
| 2026-05-06 16:21 | 33.69751 | -85.33336 | 21646 ft | 369 kts | 270° |
| 2026-05-06 16:21 | 33.69714 | -85.36435 | 22098 ft | 372 kts | 270° |
| 2026-05-06 16:22 | 33.69678 | -85.39551 | 22536 ft | 374 kts | 270° |
| 2026-05-06 16:22 | 33.69640 | -85.42690 | 22985 ft | 377 kts | 270° |
| 2026-05-06 16:22 | 33.69602 | -85.45844 | 23501 ft | 378 kts | 270° |
| 2026-05-06 16:22 | 33.69563 | -85.49017 | 23909 ft | 381 kts | 270° |
| 2026-05-06 16:23 | 33.69523 | -85.52206 | 24276 ft | 384 kts | 270° |
| 2026-05-06 16:23 | 33.69482 | -85.55428 | 24662 ft | 386 kts | 270° |
| 2026-05-06 16:23 | 33.69440 | -85.58662 | 25099 ft | 388 kts | 270° |
| 2026-05-06 16:23 | 33.69397 | -85.61871 | 25544 ft | 390 kts | 270° |
| 2026-05-06 16:24 | 33.69352 | -85.65139 | 26006 ft | 392 kts | 270° |
| 2026-05-06 16:24 | 33.69307 | -85.68442 | 26444 ft | 395 kts | 270° |
| 2026-05-06 16:24 | 33.69260 | -85.71756 | 26877 ft | 398 kts | 270° |
| 2026-05-06 16:24 | 33.69212 | -85.75084 | 27342 ft | 398 kts | 270° |
| 2026-05-06 16:25 | 33.69164 | -85.78398 | 27691 ft | 403 kts | 270° |
| 2026-05-06 16:25 | 33.69114 | -85.81776 | 28087 ft | 406 kts | 270° |
| 2026-05-06 16:25 | 33.69063 | -85.85178 | 28528 ft | 408 kts | 270° |
| 2026-05-06 16:25 | 33.69010 | -85.88599 | 28934 ft | 410 kts | 270° |
| 2026-05-06 16:26 | 33.68956 | -85.92034 | 29326 ft | 413 kts | 270° |
| 2026-05-06 16:26 | 33.68900 | -85.95495 | 29714 ft | 415 kts | 270° |
| 2026-05-06 16:26 | 33.68844 | -85.98979 | 30071 ft | 418 kts | 270° |
| 2026-05-06 16:26 | 33.68790 | -86.02476 | 30370 ft | 420 kts | 270° |
| 2026-05-06 16:27 | 33.68900 | -86.05992 | 30682 ft | 421 kts | 275° |
| 2026-05-06 16:27 | 33.69161 | -86.09508 | 31006 ft | 423 kts | 275° |
| 2026-05-06 16:27 | 33.69441 | -86.13028 | 31314 ft | 424 kts | 275° |
| 2026-05-06 16:27 | 33.69722 | -86.16560 | 31630 ft | 426 kts | 275° |
| 2026-05-06 16:28 | 33.70002 | -86.20098 | 32010 ft | 425 kts | 275° |
| 2026-05-06 16:28 | 33.70277 | -86.23603 | 32658 ft | 417 kts | 275° |
| 2026-05-06 16:28 | 33.70546 | -86.27053 | 33172 ft | 413 kts | 275° |
| 2026-05-06 16:28 | 33.70809 | -86.30439 | 33595 ft | 411 kts | 275° |
| 2026-05-06 16:29 | 33.71072 | -86.33852 | 34002 ft | 409 kts | 275° |
| 2026-05-06 16:29 | 33.71334 | -86.37250 | 34352 ft | 407 kts | 275° |
| 2026-05-06 16:29 | 33.71593 | -86.40630 | 34695 ft | 405 kts | 275° |
| 2026-05-06 16:29 | 33.71850 | -86.43987 | 35046 ft | 403 kts | 275° |
| 2026-05-06 16:30 | 33.72104 | -86.47331 | 35385 ft | 401 kts | 275° |
| 2026-05-06 16:30 | 33.72272 | -86.49548 | 35606 ft | 399 kts | 275° |
| 2026-05-06 16:30 | 33.72608 | -86.53986 | 36074 ft | 396 kts | 275° |
| 2026-05-06 16:30 | 33.72855 | -86.57266 | 36413 ft | 394 kts | 274° |
| 2026-05-06 16:31 | 33.73097 | -86.60494 | 36761 ft | 391 kts | 274° |
| 2026-05-06 16:31 | 33.73340 | -86.63740 | 37084 ft | 389 kts | 274° |
| 2026-05-06 16:31 | 33.73581 | -86.66972 | 37356 ft | 388 kts | 274° |
| 2026-05-06 16:31 | 33.73820 | -86.70198 | 37637 ft | 387 kts | 274° |
| 2026-05-06 16:32 | 33.74058 | -86.73414 | 37907 ft | 386 kts | 274° |
| 2026-05-06 16:32 | 33.74295 | -86.76624 | 38142 ft | 384 kts | 274° |
| 2026-05-06 16:32 | 33.74530 | -86.79825 | 38397 ft | 383 kts | 274° |
| 2026-05-06 16:32 | 33.74763 | -86.83012 | 38650 ft | 382 kts | 274° |
| 2026-05-06 16:33 | 33.74992 | -86.86149 | 38828 ft | 381 kts | 274° |
| 2026-05-06 16:33 | 33.75226 | -86.89367 | 38976 ft | 381 kts | 274° |
| 2026-05-06 16:33 | 33.75452 | -86.92498 | 39132 ft | 381 kts | 274° |
| 2026-05-06 16:34 | 33.75909 | -86.98831 | 39487 ft | 378 kts | 274° |
| 2026-05-06 16:34 | 33.76134 | -87.01974 | 39631 ft | 377 kts | 274° |
| 2026-05-06 16:34 | 33.76358 | -87.05119 | 39734 ft | 378 kts | 274° |
| 2026-05-06 16:34 | 33.76582 | -87.08268 | 39849 ft | 378 kts | 274° |
| 2026-05-06 16:35 | 33.76805 | -87.11418 | 39947 ft | 379 kts | 274° |
| 2026-05-06 16:35 | 33.77249 | -87.17718 | 39959 ft | 378 kts | 274° |
| 2026-05-06 16:36 | 33.77687 | -87.23980 | 40000 ft | 378 kts | 274° |
| 2026-05-06 16:36 | 33.78125 | -87.30287 | 40002 ft | 378 kts | 274° |
| 2026-05-06 16:37 | 33.78487 | -87.35535 | 40003 ft | 378 kts | 273° |
| 2026-05-06 16:37 | 33.78919 | -87.41836 | 39998 ft | 378 kts | 273° |
| 2026-05-06 16:38 | 33.79440 | -87.48119 | 39990 ft | 379 kts | 277° |
| 2026-05-06 16:38 | 33.80591 | -87.54317 | 39982 ft | 380 kts | 280° |
| 2026-05-06 16:39 | 33.81889 | -87.60451 | 39969 ft | 380 kts | 281° |
| 2026-05-06 16:39 | 33.83201 | -87.66625 | 39960 ft | 381 kts | 280° |
| 2026-05-06 16:40 | 33.84495 | -87.72809 | 39948 ft | 380 kts | 280° |
| 2026-05-06 16:40 | 33.85776 | -87.78996 | 39942 ft | 381 kts | 280° |
| 2026-05-06 16:41 | 33.87042 | -87.85144 | 39946 ft | 381 kts | 279° |
| 2026-05-06 16:41 | 33.88314 | -87.91330 | 39940 ft | 381 kts | 279° |
| 2026-05-06 16:42 | 33.89586 | -87.97530 | 39936 ft | 381 kts | 279° |
| 2026-05-06 16:42 | 33.90845 | -88.03685 | 39936 ft | 381 kts | 279° |
| 2026-05-06 16:43 | 33.92110 | -88.09882 | 39928 ft | 381 kts | 279° |
| 2026-05-06 16:43 | 33.93372 | -88.16087 | 39933 ft | 382 kts | 279° |
| 2026-05-06 16:44 | 33.94633 | -88.22303 | 39939 ft | 381 kts | 279° |
| 2026-05-06 16:44 | 33.95879 | -88.28451 | 39926 ft | 379 kts | 279° |
| 2026-05-06 16:45 | 33.97125 | -88.34627 | 39924 ft | 378 kts | 279° |
| 2026-05-06 16:45 | 33.98364 | -88.40793 | 39926 ft | 378 kts | 279° |
| 2026-05-06 16:46 | 33.99603 | -88.46969 | 39935 ft | 378 kts | 279° |
| 2026-05-06 16:46 | 34.00831 | -88.53105 | 39925 ft | 380 kts | 279° |
| 2026-05-06 16:47 | 34.02069 | -88.59314 | 39936 ft | 381 kts | 279° |
| 2026-05-06 16:47 | 34.03306 | -88.65523 | 39943 ft | 381 kts | 279° |
| 2026-05-06 16:48 | 34.04540 | -88.71741 | 39949 ft | 381 kts | 279° |
| 2026-05-06 16:48 | 34.05771 | -88.77963 | 39949 ft | 381 kts | 279° |
| 2026-05-06 16:49 | 34.06991 | -88.84146 | 39952 ft | 381 kts | 279° |
| 2026-05-06 16:49 | 34.08215 | -88.90370 | 39949 ft | 382 kts | 278° |
| 2026-05-06 16:50 | 34.09441 | -88.96620 | 39952 ft | 383 kts | 278° |
| 2026-05-06 16:50 | 34.10663 | -89.02868 | 39940 ft | 383 kts | 278° |
| 2026-05-06 16:51 | 34.11883 | -89.09120 | 39935 ft | 383 kts | 278° |
| 2026-05-06 16:51 | 34.13100 | -89.15373 | 39927 ft | 383 kts | 278° |
| 2026-05-06 16:52 | 34.14305 | -89.21588 | 39938 ft | 382 kts | 278° |
| 2026-05-06 16:52 | 34.15516 | -89.27847 | 39948 ft | 382 kts | 278° |
| 2026-05-06 16:53 | 34.16722 | -89.34103 | 39958 ft | 382 kts | 278° |
| 2026-05-06 16:53 | 34.17926 | -89.40367 | 39985 ft | 382 kts | 278° |
| 2026-05-06 16:54 | 34.19126 | -89.46624 | 39999 ft | 382 kts | 278° |
| 2026-05-06 16:54 | 34.20323 | -89.52888 | 39991 ft | 382 kts | 278° |
| 2026-05-06 16:55 | 34.21725 | -89.59108 | 40039 ft | 385 kts | 281° |
| 2026-05-06 16:55 | 34.23290 | -89.65243 | 40003 ft | 383 kts | 281° |
| 2026-05-06 16:56 | 34.24836 | -89.71404 | 39998 ft | 383 kts | 281° |
| 2026-05-06 16:56 | 34.26342 | -89.77579 | 40007 ft | 382 kts | 280° |
| 2026-05-06 16:57 | 34.27831 | -89.83762 | 40015 ft | 382 kts | 280° |
| 2026-05-06 16:57 | 34.29314 | -89.89943 | 40017 ft | 382 kts | 280° |
| 2026-05-06 16:58 | 34.30784 | -89.96076 | 40017 ft | 382 kts | 280° |
| 2026-05-06 16:58 | 34.32267 | -90.02269 | 39994 ft | 382 kts | 280° |
| 2026-05-06 16:59 | 34.33736 | -90.08417 | 39980 ft | 379 kts | 280° |
| 2026-05-06 16:59 | 34.35181 | -90.14500 | 39993 ft | 378 kts | 280° |
| 2026-05-06 17:00 | 34.36635 | -90.20626 | 40008 ft | 378 kts | 280° |
| 2026-05-06 17:00 | 34.38088 | -90.26753 | 40017 ft | 378 kts | 280° |
| 2026-05-06 17:01 | 34.39528 | -90.32841 | 40028 ft | 378 kts | 280° |
| 2026-05-06 17:01 | 34.40974 | -90.38970 | 40055 ft | 378 kts | 280° |
| 2026-05-06 17:02 | 34.42413 | -90.45088 | 40034 ft | 377 kts | 280° |
| 2026-05-06 17:02 | 34.43845 | -90.51192 | 40034 ft | 377 kts | 279° |
| 2026-05-06 17:03 | 34.45275 | -90.57300 | 40034 ft | 376 kts | 279° |
| 2026-05-06 17:03 | 34.46692 | -90.63370 | 40015 ft | 376 kts | 279° |
| 2026-05-06 17:04 | 34.48116 | -90.69485 | 40023 ft | 376 kts | 279° |
| 2026-05-06 17:04 | 34.49533 | -90.75579 | 40006 ft | 375 kts | 279° |
| 2026-05-06 17:05 | 34.49771 | -90.76605 | 40019 ft | 375 kts | 279° |